createdAt,value
2023-04-04T00:00:36.291Z,3.03
2023-04-04T00:03:03.472Z,3.07
2023-04-04T00:05:30.447Z,3.27
2023-04-04T00:07:57.257Z,3.60
2023-04-04T00:10:24.140Z,3.03
2023-04-04T00:12:50.945Z,3.73
2023-04-04T00:15:18.048Z,4.00
2023-04-04T00:17:44.929Z,4.40
2023-04-04T00:20:12.175Z,3.70
2023-04-04T00:22:39.035Z,3.80
2023-04-04T00:25:06.063Z,3.43
2023-04-04T00:27:32.881Z,3.53
2023-04-04T00:29:59.759Z,3.00
2023-04-04T00:32:26.789Z,3.47
2023-04-04T00:34:54.909Z,4.10
2023-04-04T00:37:21.952Z,4.10
2023-04-04T00:39:48.831Z,3.50
2023-04-04T00:42:15.699Z,3.23
2023-04-04T00:44:42.720Z,3.10
2023-04-04T00:47:09.729Z,3.23
2023-04-04T00:49:36.588Z,3.27
2023-04-04T00:52:03.500Z,4.30
2023-04-04T00:54:30.771Z,3.60
2023-04-04T00:56:57.590Z,3.67
2023-04-04T00:59:27.306Z,4.03
2023-04-04T01:01:54.387Z,4.03
2023-04-04T01:04:21.408Z,3.60
2023-04-04T01:06:48.321Z,4.10
2023-04-04T01:09:15.417Z,3.60
2023-04-04T01:11:43.194Z,3.53
2023-04-04T01:14:10.047Z,4.60
2023-04-04T01:16:37.136Z,3.73
2023-04-04T01:19:09.674Z,3.40
2023-04-04T01:21:37.776Z,4.50
2023-04-04T01:24:05.570Z,3.90
2023-04-04T01:26:32.447Z,4.63
2023-04-04T01:28:59.843Z,4.23
2023-04-04T01:31:39.597Z,4.07
2023-04-04T01:34:47.037Z,4.00
2023-04-04T01:37:22.519Z,3.90
2023-04-04T01:40:17.336Z,4.33
2023-04-04T01:42:45.904Z,3.80
2023-04-04T01:45:12.778Z,4.07
2023-04-04T01:47:41.785Z,4.07
2023-04-04T01:50:11.204Z,4.43
2023-04-04T01:52:38.497Z,4.20
2023-04-04T01:55:06.121Z,4.33
2023-04-04T01:57:33.027Z,4.27
2023-04-04T01:59:59.829Z,5.10
2023-04-04T02:02:26.713Z,3.30
2023-04-04T02:04:53.494Z,4.73
2023-04-04T02:07:20.307Z,4.97
2023-04-04T02:09:47.169Z,4.67
2023-04-04T02:12:14.047Z,3.70
2023-04-04T02:14:40.942Z,4.30
2023-04-04T02:17:07.883Z,4.33
2023-04-04T02:19:34.728Z,4.50
2023-04-04T02:22:01.636Z,4.10
2023-04-04T02:24:28.577Z,4.17
2023-04-04T02:26:55.335Z,4.40
2023-04-04T02:29:22.172Z,3.97
2023-04-04T02:31:49.033Z,4.60
2023-04-04T02:34:15.928Z,4.10
2023-04-04T02:36:42.801Z,3.60
2023-04-04T02:39:09.636Z,4.57
2023-04-04T02:41:36.454Z,4.00
2023-04-04T02:44:03.312Z,3.73
2023-04-04T02:46:30.146Z,4.77
2023-04-04T02:48:57.095Z,4.10
2023-04-04T02:51:23.978Z,5.07
2023-04-04T02:53:50.850Z,4.53
2023-04-04T02:56:17.739Z,4.40
2023-04-04T02:58:44.779Z,3.80
2023-04-04T03:01:11.986Z,4.10
2023-04-04T03:03:39.002Z,3.63
2023-04-04T03:06:06.061Z,4.00
2023-04-04T03:08:32.928Z,4.33
2023-04-04T03:10:59.729Z,4.17
2023-04-04T03:13:26.998Z,4.00
2023-04-04T03:16:12.253Z,5.20
2023-04-04T03:18:39.060Z,4.43
2023-04-04T03:21:05.891Z,4.17
2023-04-04T03:23:32.765Z,4.10
2023-04-04T03:25:59.650Z,4.07
2023-04-04T03:28:26.481Z,3.63
2023-04-04T03:30:53.418Z,4.17
2023-04-04T03:33:20.232Z,4.73
2023-04-04T03:35:47.252Z,3.93
2023-04-04T03:38:14.108Z,4.80
2023-04-04T03:40:41.165Z,4.97
2023-04-04T03:43:08.638Z,5.17
2023-04-04T03:45:36.045Z,5.00
2023-04-04T03:48:02.998Z,4.17
2023-04-04T03:50:30.612Z,4.20
2023-04-04T03:52:57.613Z,4.30
2023-04-04T03:55:24.870Z,4.63
2023-04-04T03:57:52.067Z,3.13
2023-04-04T04:00:18.948Z,5.77
2023-04-04T04:02:45.970Z,4.70
2023-04-04T04:05:12.954Z,4.20
2023-04-04T04:07:44.054Z,7.63
2023-04-04T04:10:11.875Z,4.50
2023-04-04T04:12:38.716Z,4.30
2023-04-04T04:15:06.308Z,4.57
2023-04-04T04:17:33.261Z,3.47
2023-04-04T04:20:00.192Z,3.97
2023-04-04T04:22:27.038Z,4.00
2023-04-04T04:24:53.915Z,4.37
2023-04-04T04:27:20.785Z,3.93
2023-04-04T04:29:47.567Z,4.53
2023-04-04T04:32:19.225Z,4.27
2023-04-04T04:34:46.082Z,4.10
2023-04-04T04:37:12.881Z,4.03
2023-04-04T04:39:39.738Z,4.00
2023-04-04T04:42:06.530Z,3.07
2023-04-04T04:44:33.386Z,3.97
2023-04-04T04:47:00.252Z,4.60
2023-04-04T04:49:27.443Z,4.50
2023-04-04T04:51:54.310Z,4.63
2023-04-04T04:54:21.156Z,4.53
2023-04-04T04:56:48.118Z,4.57
2023-04-04T04:59:14.997Z,4.20
2023-04-04T05:01:42.085Z,4.47
2023-04-04T05:04:08.949Z,3.97
2023-04-04T05:06:35.806Z,4.23
2023-04-04T05:09:02.732Z,3.70
2023-04-04T05:11:29.621Z,4.27
2023-04-04T05:13:56.775Z,3.30
2023-04-04T05:16:23.632Z,3.90
2023-04-04T05:18:50.860Z,4.10
2023-04-04T05:21:17.748Z,3.87
2023-04-04T05:23:44.623Z,4.17
2023-04-04T05:26:11.494Z,3.50
2023-04-04T05:28:38.377Z,3.77
2023-04-04T05:31:05.226Z,4.73
2023-04-04T05:33:32.121Z,3.90
2023-04-04T05:36:01.023Z,4.10
2023-04-04T05:38:27.993Z,4.63
2023-04-04T05:40:54.869Z,4.17
2023-04-04T05:43:21.749Z,3.97
2023-04-04T05:45:48.622Z,5.70
2023-04-04T05:48:15.561Z,4.30
2023-04-04T05:50:45.500Z,4.03
2023-04-04T05:53:12.354Z,3.97
2023-04-04T05:55:39.165Z,4.80
2023-04-04T05:58:05.991Z,4.00
2023-04-04T06:00:32.865Z,4.30
2023-04-04T06:02:59.784Z,3.90
2023-04-04T06:05:27.160Z,3.67
2023-04-04T06:07:54.070Z,3.97
2023-04-04T06:10:21.089Z,4.27
2023-04-04T06:12:47.957Z,3.90
2023-04-04T06:15:14.840Z,4.03
2023-04-04T06:17:41.756Z,4.27
2023-04-04T06:20:09.504Z,4.40
2023-04-04T06:22:36.363Z,3.50
2023-04-04T06:25:03.306Z,3.60
2023-04-04T06:27:30.120Z,6.43
2023-04-04T06:29:56.912Z,5.90
2023-04-04T06:32:23.888Z,3.73
2023-04-04T06:34:50.728Z,4.37
2023-04-04T06:37:17.492Z,3.40
2023-04-04T06:39:44.403Z,4.27
2023-04-04T06:42:11.251Z,3.43
2023-04-04T06:44:38.061Z,3.73
2023-04-04T06:47:04.985Z,4.77
2023-04-04T06:49:32.261Z,4.03
2023-04-04T06:52:00.576Z,5.53
2023-04-04T06:54:27.562Z,3.40
2023-04-04T06:56:54.382Z,4.30
2023-04-04T06:59:21.307Z,4.70
2023-04-04T07:01:48.140Z,3.63
2023-04-04T07:04:15.043Z,3.13
2023-04-04T07:06:41.896Z,3.20
2023-04-04T07:09:15.396Z,3.67
2023-04-04T07:11:45.558Z,4.20
2023-04-04T07:14:12.356Z,3.70
2023-04-04T07:16:39.253Z,3.20
2023-04-04T07:19:06.106Z,3.33
2023-04-04T07:21:33.034Z,3.80
2023-04-04T07:23:59.908Z,3.80
2023-04-04T07:26:26.700Z,4.00
2023-04-04T07:28:53.504Z,3.93
2023-04-04T07:31:20.393Z,4.13
2023-04-04T07:33:47.181Z,4.27
2023-04-04T07:36:14.049Z,3.37
2023-04-04T07:38:40.868Z,3.43
2023-04-04T07:41:07.823Z,3.70
2023-04-04T07:43:34.557Z,3.50
2023-04-04T07:46:01.909Z,4.07
2023-04-04T07:48:29.027Z,3.80
2023-04-04T07:50:55.883Z,4.20
2023-04-04T07:53:22.758Z,3.50
2023-04-04T07:55:49.583Z,3.47
2023-04-04T07:58:16.446Z,3.53
2023-04-04T08:00:43.297Z,3.60
2023-04-04T08:03:10.367Z,3.00
2023-04-04T08:05:37.347Z,3.63
2023-04-04T08:08:04.278Z,4.47
2023-04-04T08:10:31.183Z,4.30
2023-04-04T08:12:58.037Z,3.53
2023-04-04T08:15:25.119Z,3.50
2023-04-04T08:17:51.950Z,3.60
2023-04-04T08:20:18.856Z,3.33
2023-04-04T08:22:45.688Z,3.00
2023-04-04T08:25:12.533Z,3.80
2023-04-04T08:27:42.405Z,3.83
2023-04-04T08:30:09.771Z,3.70
2023-04-04T08:32:36.605Z,3.40
2023-04-04T08:35:04.425Z,3.30
2023-04-04T08:37:31.244Z,3.77
2023-04-04T08:39:58.112Z,3.80
2023-04-04T08:42:28.915Z,2.93
2023-04-04T08:45:00.439Z,3.67
2023-04-04T08:47:29.124Z,3.27
2023-04-04T08:49:59.798Z,4.10
2023-04-04T08:52:28.973Z,3.03
2023-04-04T08:54:56.847Z,3.43
2023-04-04T08:57:24.467Z,3.93
2023-04-04T08:59:51.564Z,3.03
2023-04-04T09:02:29.867Z,3.10
2023-04-04T09:05:06.311Z,3.40
2023-04-04T09:07:39.450Z,3.20
2023-04-04T09:10:10.663Z,4.50
2023-04-04T09:12:45.472Z,3.60
2023-04-04T09:15:14.206Z,3.47
2023-04-04T09:17:41.260Z,3.80
2023-04-04T09:20:39.413Z,3.23
2023-04-04T09:23:17.771Z,2.97
2023-04-04T09:28:25.236Z,3.00
2023-04-04T09:30:52.923Z,3.57
2023-04-04T09:33:23.605Z,3.10
2023-04-04T09:35:55.289Z,3.10
2023-04-04T09:38:25.267Z,3.93
2023-04-04T09:40:53.009Z,3.80
2023-04-04T09:43:20.085Z,2.63
2023-04-04T09:45:47.319Z,3.80
2023-04-04T09:48:26.526Z,4.13
2023-04-04T09:50:53.565Z,3.80
2023-04-04T09:53:20.329Z,4.00
2023-04-04T09:55:55.571Z,3.63
2023-04-04T09:58:28.327Z,2.77
2023-04-04T10:01:09.227Z,3.40
2023-04-04T10:03:37.673Z,2.87
2023-04-04T10:06:09.845Z,3.53
2023-04-04T10:08:40.687Z,3.70
2023-04-04T10:11:11.133Z,3.50
2023-04-04T10:13:40.611Z,3.30
2023-04-04T10:16:08.061Z,3.10
2023-04-04T10:18:36.531Z,4.03
2023-04-04T10:23:37.147Z,3.60
2023-04-04T10:26:04.098Z,3.70
2023-04-04T10:28:30.934Z,3.53
2023-04-04T10:31:20.103Z,3.27
2023-04-04T10:33:56.278Z,3.63
2023-04-04T10:36:30.738Z,3.80
2023-04-04T10:39:33.662Z,3.57
2023-04-04T10:42:02.282Z,3.77
2023-04-04T10:44:32.224Z,3.30
2023-04-04T10:47:08.012Z,2.97
2023-04-04T10:49:35.685Z,3.77
2023-04-04T10:52:03.669Z,3.93
2023-04-04T10:54:30.708Z,3.33
2023-04-04T10:56:58.827Z,3.63
2023-04-04T10:59:25.766Z,3.10
2023-04-04T11:02:00.194Z,3.77
2023-04-04T11:04:35.607Z,3.60
2023-04-04T11:07:10.475Z,3.50
2023-04-04T11:09:48.170Z,4.07
2023-04-04T11:12:16.448Z,3.70
2023-04-04T11:14:58.496Z,4.00
2023-04-04T11:17:50.135Z,3.50
2023-04-04T11:20:21.236Z,3.57
2023-04-04T11:23:06.394Z,3.10
2023-04-04T11:25:41.948Z,4.37
2023-04-04T11:28:34.516Z,4.00
2023-04-04T11:31:17.885Z,3.37
2023-04-04T11:34:00.401Z,3.40
2023-04-04T11:36:36.365Z,3.63
2023-04-04T11:39:22.210Z,4.00
2023-04-04T11:42:02.011Z,3.40
2023-04-04T11:44:30.620Z,3.47
2023-04-04T11:47:11.403Z,3.70
2023-04-04T11:49:42.120Z,3.97
2023-04-04T11:52:12.627Z,4.33
2023-04-04T11:54:42.951Z,3.63
2023-04-04T11:57:18.745Z,3.43
2023-04-04T11:59:51.245Z,4.10
2023-04-04T12:02:25.547Z,3.40
2023-04-04T12:04:52.840Z,3.50
2023-04-04T12:07:20.110Z,3.83
2023-04-04T12:09:48.374Z,3.47
2023-04-04T12:12:16.641Z,3.20
2023-04-04T12:14:44.439Z,3.47
2023-04-04T12:17:11.853Z,4.00
2023-04-04T12:19:40.736Z,4.40
2023-04-04T12:22:08.442Z,3.67
2023-04-04T12:24:36.766Z,4.07
2023-04-04T12:27:04.848Z,3.97
2023-04-04T12:29:33.313Z,3.37
2023-04-04T12:32:00.400Z,3.40
2023-04-04T12:34:34.025Z,3.20
2023-04-04T12:37:03.010Z,4.30
2023-04-04T12:39:30.798Z,3.90
2023-04-04T12:42:01.307Z,3.60
2023-04-04T12:44:31.680Z,4.40
2023-04-04T12:47:01.210Z,3.73
2023-04-04T12:49:44.028Z,4.30
2023-04-04T12:52:19.993Z,3.87
2023-04-04T12:54:50.858Z,4.43
2023-04-04T12:57:26.850Z,3.70
2023-04-04T12:59:55.472Z,3.93
2023-04-04T13:02:23.843Z,4.57
2023-04-04T13:04:54.977Z,3.53
2023-04-04T13:07:30.595Z,3.90
2023-04-04T13:10:06.047Z,3.60
2023-04-04T13:12:59.648Z,4.40
2023-04-04T13:15:48.349Z,3.47
2023-04-04T13:18:24.020Z,4.00
2023-04-04T13:20:53.812Z,3.90
2023-04-04T13:23:21.654Z,3.40
2023-04-04T13:25:48.744Z,4.50
2023-04-04T13:28:15.862Z,3.77
2023-04-04T13:30:42.775Z,4.30
2023-04-04T13:33:10.059Z,3.87
2023-04-04T13:35:37.853Z,3.57
2023-04-04T13:38:05.050Z,4.40
2023-04-04T13:40:31.965Z,4.90
2023-04-04T13:42:58.851Z,3.77
2023-04-04T13:45:26.203Z,3.60
2023-04-04T13:47:53.155Z,3.90
2023-04-04T13:50:21.645Z,3.97
2023-04-04T13:52:49.077Z,3.80
2023-04-04T13:55:15.962Z,3.93
2023-04-04T13:57:42.777Z,3.90
2023-04-04T14:00:10.537Z,3.87
2023-04-04T14:02:37.571Z,3.93
2023-04-04T14:05:06.361Z,3.60
2023-04-04T14:07:33.267Z,4.10
2023-04-04T14:10:00.211Z,4.40
2023-04-04T14:12:27.121Z,4.10
2023-04-04T14:14:53.926Z,3.90
2023-04-04T14:17:20.760Z,3.83
2023-04-04T14:19:47.631Z,3.90
2023-04-04T14:22:14.391Z,4.33
2023-04-04T14:24:41.295Z,3.57
2023-04-04T14:27:08.100Z,3.73
2023-04-04T14:29:34.997Z,3.73
2023-04-04T14:32:01.900Z,3.90
2023-04-04T14:34:28.855Z,3.83
2023-04-04T14:36:55.717Z,3.17
2023-04-04T14:39:22.541Z,3.70
2023-04-04T14:41:49.342Z,3.50
2023-04-04T14:44:16.261Z,3.50
2023-04-04T14:46:43.088Z,4.33
2023-04-04T14:49:09.989Z,3.30
2023-04-04T14:51:36.774Z,3.13
2023-04-04T14:54:03.806Z,3.20
2023-04-04T14:56:30.748Z,3.47
2023-04-04T14:58:57.590Z,3.90
2023-04-04T15:01:24.461Z,4.27
2023-04-04T15:03:51.321Z,3.40
2023-04-04T15:06:18.281Z,3.40
2023-04-04T15:08:45.490Z,3.33
2023-04-04T15:11:12.484Z,3.70
2023-04-04T15:13:39.525Z,3.43
2023-04-04T15:16:06.440Z,3.70
2023-04-04T15:18:33.278Z,3.77
2023-04-04T15:21:00.143Z,3.40
2023-04-04T15:23:26.977Z,3.37
2023-04-04T15:25:53.850Z,3.63
2023-04-04T15:28:20.622Z,3.50
2023-04-04T15:30:47.488Z,3.60
2023-04-04T15:33:14.325Z,3.70
2023-04-04T15:35:41.207Z,3.67
2023-04-04T15:38:08.200Z,4.00
2023-04-04T15:40:35.053Z,3.17
2023-04-04T15:43:01.836Z,3.30
2023-04-04T15:45:28.674Z,3.47
2023-04-04T15:47:55.539Z,3.30
2023-04-04T15:50:22.397Z,3.33
2023-04-04T15:52:49.395Z,3.67
2023-04-04T15:55:16.292Z,3.07
2023-04-04T15:57:43.308Z,3.50
2023-04-04T16:00:11.729Z,3.40
2023-04-04T16:02:38.888Z,3.17
2023-04-04T16:05:06.127Z,3.73
2023-04-04T16:07:33.037Z,3.97
2023-04-04T16:09:59.870Z,4.13
2023-04-04T16:12:26.786Z,5.03
2023-04-04T16:14:53.653Z,3.73
2023-04-04T16:17:20.541Z,4.87
2023-04-04T16:19:47.330Z,7.70
2023-04-04T16:22:14.296Z,5.47
2023-04-04T16:24:41.127Z,4.13
2023-04-04T16:27:07.915Z,5.10
2023-04-04T16:29:34.834Z,3.80
2023-04-04T16:32:01.772Z,4.73
2023-04-04T16:34:28.629Z,5.90
2023-04-04T16:36:55.512Z,4.60
2023-04-04T16:39:22.277Z,5.80
2023-04-04T16:41:49.147Z,5.30
2023-04-04T16:44:15.972Z,3.97
2023-04-04T16:46:42.938Z,3.80
2023-04-04T16:49:10.686Z,5.10
2023-04-04T16:51:37.540Z,5.90
2023-04-04T16:54:04.428Z,4.93
2023-04-04T16:56:31.254Z,4.80
2023-04-04T16:58:58.138Z,5.17
2023-04-04T17:01:25.048Z,4.57
2023-04-04T17:03:51.975Z,3.40
2023-04-04T17:06:18.837Z,5.20
2023-04-04T17:08:45.804Z,4.30
2023-04-04T17:11:12.770Z,4.47
2023-04-04T17:13:39.582Z,4.80
2023-04-04T17:16:06.892Z,5.43
2023-04-04T17:18:33.751Z,5.60
2023-04-04T17:21:01.049Z,5.17
2023-04-04T17:23:27.892Z,7.70
2023-04-04T17:25:54.837Z,7.70
2023-04-04T17:28:21.693Z,5.67
2023-04-04T17:30:48.595Z,6.17
2023-04-04T17:33:15.411Z,7.90
2023-04-04T17:35:42.761Z,8.53
2023-04-04T17:38:09.807Z,6.80
2023-04-04T17:40:36.613Z,10.60
2023-04-04T17:43:03.469Z,8.90
2023-04-04T17:45:30.504Z,7.90
2023-04-04T17:47:57.458Z,8.60
2023-04-04T17:50:24.354Z,8.50
2023-04-04T17:52:51.182Z,6.73
2023-04-04T17:55:18.054Z,7.20
2023-04-04T17:57:44.924Z,5.70
2023-04-04T18:00:14.053Z,6.67
2023-04-04T18:02:40.929Z,5.10
2023-04-04T18:05:09.731Z,6.30
2023-04-04T18:07:36.549Z,5.83
2023-04-04T18:10:03.575Z,7.70
2023-04-04T18:12:30.653Z,5.60
2023-04-04T18:14:57.732Z,5.40
2023-04-04T18:17:24.737Z,5.57
2023-04-04T18:19:51.797Z,4.67
2023-04-04T18:22:18.643Z,5.30
2023-04-04T18:24:47.489Z,6.37
2023-04-04T18:27:15.505Z,4.10
2023-04-04T18:29:42.340Z,5.13
2023-04-04T18:32:09.242Z,4.60
2023-04-04T18:34:36.125Z,5.80
2023-04-04T18:37:02.979Z,6.23
2023-04-04T18:39:29.826Z,8.00
2023-04-04T18:41:56.683Z,8.57
2023-04-04T18:44:23.894Z,7.97
2023-04-04T18:46:51.190Z,7.23
2023-04-04T18:49:17.996Z,7.23
2023-04-04T18:51:46.904Z,7.60
2023-04-04T18:54:13.692Z,6.83
2023-04-04T18:56:40.665Z,6.40
2023-04-04T18:59:07.681Z,7.23
2023-04-04T19:01:34.827Z,5.90
2023-04-04T19:04:03.882Z,6.80
2023-04-04T19:06:32.712Z,7.07
2023-04-04T19:09:02.404Z,6.90
2023-04-04T19:11:32.323Z,6.33
2023-04-04T19:13:59.063Z,7.40
2023-04-04T19:16:25.950Z,6.60
2023-04-04T19:18:52.689Z,6.30
2023-04-04T19:21:19.657Z,6.13
2023-04-04T19:23:47.116Z,5.90
2023-04-04T19:26:15.738Z,6.43
2023-04-04T19:28:44.533Z,6.00
2023-04-04T19:31:22.604Z,6.00
2023-04-04T19:33:51.564Z,7.00
2023-04-04T19:36:18.475Z,5.93
2023-04-04T19:38:45.431Z,6.57
2023-04-04T19:41:16.298Z,5.17
2023-04-04T19:43:45.875Z,6.27
2023-04-04T19:46:24.856Z,4.70
2023-04-04T19:49:02.725Z,4.57
2023-04-04T19:51:33.469Z,5.33
2023-04-04T19:54:00.920Z,4.70
2023-04-04T19:56:28.979Z,4.80
2023-04-04T19:58:59.343Z,4.30
2023-04-04T20:01:28.665Z,4.80
2023-04-04T20:04:05.974Z,4.57
2023-04-04T20:06:32.795Z,4.30
2023-04-04T20:09:10.741Z,4.30
2023-04-04T20:11:37.569Z,4.43
2023-04-04T20:14:10.031Z,4.97
2023-04-04T20:16:37.471Z,4.80
2023-04-04T20:19:06.074Z,4.77
2023-04-04T20:21:33.974Z,4.53
2023-04-04T20:24:04.471Z,5.63
2023-04-04T20:26:52.055Z,5.57
2023-04-04T20:29:25.251Z,6.03
2023-04-04T20:32:04.781Z,5.27
2023-04-04T20:34:45.545Z,5.20
2023-04-04T20:37:17.466Z,4.80
2023-04-04T20:39:56.840Z,4.67
2023-04-04T20:42:29.513Z,5.80
2023-04-04T20:45:09.866Z,6.47
2023-04-04T20:47:47.994Z,6.23
2023-04-04T20:50:17.767Z,6.00
2023-04-04T20:52:44.659Z,6.60
2023-04-04T20:55:11.648Z,5.80
2023-04-04T20:57:39.027Z,5.73
2023-04-04T21:00:29.139Z,5.40
2023-04-04T21:02:58.931Z,5.13
2023-04-04T21:05:32.819Z,5.23
2023-04-04T21:08:02.292Z,5.93
2023-04-04T21:10:29.091Z,5.23
2023-04-04T21:13:00.822Z,5.67
2023-04-04T21:15:32.164Z,6.23
2023-04-04T21:18:07.557Z,6.27
2023-04-04T21:20:46.560Z,5.43
2023-04-04T21:23:25.616Z,5.43
2023-04-04T21:26:08.082Z,4.87
2023-04-04T21:28:38.529Z,6.27
2023-04-04T21:31:41.463Z,5.87
2023-04-04T21:34:12.750Z,5.50
2023-04-04T21:36:39.918Z,6.10
2023-04-04T21:39:30.201Z,5.67
2023-04-04T21:42:00.298Z,5.80
2023-04-04T21:44:28.197Z,4.90
2023-04-04T21:46:55.150Z,5.90
2023-04-04T21:49:23.878Z,6.00
2023-04-04T21:51:51.715Z,6.50
2023-04-04T21:54:19.499Z,6.90
2023-04-04T21:56:46.638Z,6.30
2023-04-04T21:59:13.503Z,5.63
2023-04-04T22:01:40.332Z,6.37
2023-04-04T22:04:07.250Z,7.20
2023-04-04T22:06:34.196Z,6.67
2023-04-04T22:09:01.284Z,7.50
2023-04-04T22:11:28.588Z,6.90
2023-04-04T22:13:56.361Z,6.10
2023-04-04T22:16:23.336Z,6.33
2023-04-04T22:18:50.579Z,7.00
2023-04-04T22:21:19.991Z,5.77
2023-04-04T22:23:46.848Z,5.20
2023-04-04T22:26:15.472Z,6.40
2023-04-04T22:28:42.856Z,6.10
2023-04-04T22:31:09.720Z,5.60
2023-04-04T22:33:36.491Z,5.90
2023-04-04T22:36:04.768Z,5.67
2023-04-04T22:38:31.690Z,5.43
2023-04-04T22:40:59.144Z,6.27
2023-04-04T22:43:26.440Z,5.80
2023-04-04T22:45:53.730Z,5.63
2023-04-04T22:48:21.580Z,6.50
2023-04-04T22:50:53.120Z,5.37
2023-04-04T22:53:19.961Z,6.07
2023-04-04T22:55:46.772Z,6.40
2023-04-04T22:58:13.558Z,5.20
2023-04-04T23:00:40.488Z,4.60
2023-04-04T23:03:07.979Z,6.07
2023-04-04T23:05:34.898Z,6.13
2023-04-04T23:08:02.935Z,5.80
2023-04-04T23:10:30.995Z,6.20
2023-04-04T23:12:58.706Z,6.40
2023-04-04T23:15:26.013Z,5.20
2023-04-04T23:17:53.282Z,5.40
2023-04-04T23:20:20.614Z,5.80
2023-04-04T23:22:47.449Z,5.30
2023-04-04T23:25:14.268Z,5.00
2023-04-04T23:27:41.159Z,5.50
2023-04-04T23:30:09.269Z,5.73
2023-04-04T23:32:36.125Z,5.60
2023-04-04T23:35:02.968Z,5.80
2023-04-04T23:37:29.831Z,5.87
2023-04-04T23:39:56.704Z,5.03
2023-04-04T23:42:24.069Z,5.40
2023-04-04T23:44:50.851Z,5.50
2023-04-04T23:47:17.720Z,5.30
2023-04-04T23:49:44.625Z,5.43
2023-04-04T23:52:11.617Z,5.43
2023-04-04T23:54:38.452Z,5.27
2023-04-04T23:57:05.261Z,6.60
2023-04-04T23:59:32.244Z,4.90
